Carousel Center, New York
Current Conditions -  °F | °C
As of 6:54 PM on Friday 28 Nov 2014 (Local Time) from KSYR Reporting Station
Light Snow Light Snow  
Wind Chill: 16°   Ceiling: 4100
Heat Index: 26°   Visibility: 9mi
Dew Point: 15°   Wind: 12mph
Humidity: 63%   Direction: 250°WSW
Pressure: 30.22"   Gusts: NA
Location:  43.0685°N, 76.1709°W
Report Text: KSYR 282354Z 25010KT 9SM -SN OVC041 M03/M09 A3022 RMK AO2 SLP237 4/006 P0000 60000 T10331094 11033 21039 51004
Loading
Personal Weather Stations






























Interactive Weather Map New forecast layout! Learn more

10-Day Weather Forecast

Advertisements
Track Severe Weather on mobile